createdAt,value
2018-02-07T00:00:39.702Z,4.95
2018-02-07T00:03:06.883Z,4.88
2018-02-07T00:05:36.597Z,4.81
2018-02-07T00:08:03.842Z,4.95
2018-02-07T00:10:30.682Z,4.71
2018-02-07T00:12:57.955Z,4.96
2018-02-07T00:15:25.245Z,4.64
2018-02-07T00:17:52.185Z,4.50
2018-02-07T00:20:19.245Z,4.44
2018-02-07T00:22:46.496Z,4.45
2018-02-07T00:25:13.790Z,4.51
2018-02-07T00:27:40.989Z,4.88
2018-02-07T00:30:08.507Z,4.99
2018-02-07T00:32:35.554Z,4.92
2018-02-07T00:35:02.727Z,4.62
2018-02-07T00:37:29.645Z,4.39
2018-02-07T00:39:57.233Z,4.41
2018-02-07T00:42:24.576Z,4.44
2018-02-07T00:44:51.657Z,4.58
2018-02-07T00:47:18.682Z,4.67
2018-02-07T00:49:46.023Z,4.52
2018-02-07T00:52:13.153Z,4.53
2018-02-07T00:54:40.022Z,4.73
2018-02-07T00:57:07.037Z,4.82
2018-02-07T00:59:34.037Z,4.80
2018-02-07T01:02:01.262Z,4.67
2018-02-07T01:04:28.654Z,4.63
2018-02-07T01:06:55.515Z,4.71
2018-02-07T01:09:22.343Z,4.67
2018-02-07T01:11:49.546Z,4.57
2018-02-07T01:14:16.694Z,4.45
2018-02-07T01:16:43.877Z,4.29
2018-02-07T01:19:10.925Z,4.07
2018-02-07T01:21:38.198Z,4.44
2018-02-07T01:24:05.058Z,3.94
2018-02-07T01:26:32.003Z,3.70
2018-02-07T01:28:59.305Z,3.61
2018-02-07T01:31:26.402Z,3.52
2018-02-07T01:33:53.753Z,3.41
2018-02-07T01:36:21.113Z,3.29
2018-02-07T01:38:48.301Z,3.16
2018-02-07T01:41:15.690Z,3.12
2018-02-07T01:43:42.614Z,3.07
2018-02-07T01:46:09.734Z,3.05
2018-02-07T01:48:37.136Z,3.06
2018-02-07T01:51:04.231Z,3.07
2018-02-07T01:53:31.430Z,2.95
2018-02-07T01:55:58.590Z,2.82
2018-02-07T01:58:25.749Z,2.79
2018-02-07T02:00:53.178Z,2.76
2018-02-07T02:03:20.374Z,2.64
2018-02-07T02:05:47.458Z,2.58
2018-02-07T02:08:14.614Z,2.61
2018-02-07T02:10:41.794Z,2.53
2018-02-07T02:13:08.881Z,2.49
2018-02-07T02:15:36.027Z,2.43
2018-02-07T02:18:03.294Z,2.48
2018-02-07T02:20:30.544Z,2.50
2018-02-07T02:22:57.621Z,2.49
2018-02-07T02:25:24.428Z,2.30
2018-02-07T02:27:51.606Z,2.27
2018-02-07T02:30:18.810Z,2.08
2018-02-07T02:32:46.048Z,2.00
2018-02-07T02:35:13.669Z,2.06
2018-02-07T02:37:41.026Z,2.06
2018-02-07T02:40:08.142Z,2.06
2018-02-07T02:42:35.054Z,1.88
2018-02-07T02:45:02.226Z,1.94
2018-02-07T02:47:29.141Z,1.99
2018-02-07T02:49:56.482Z,2.40
2018-02-07T02:52:23.433Z,2.16
2018-02-07T02:54:50.760Z,2.20
2018-02-07T02:57:17.662Z,2.13
2018-02-07T02:59:44.690Z,1.96
2018-02-07T03:02:12.109Z,2.00
2018-02-07T03:04:39.473Z,2.06
2018-02-07T03:07:06.382Z,1.91
2018-02-07T03:09:33.757Z,1.78
2018-02-07T03:12:01.261Z,1.86
2018-02-07T03:14:28.402Z,1.93
2018-02-07T03:16:55.342Z,1.92
2018-02-07T03:19:22.309Z,2.23
2018-02-07T03:21:49.624Z,2.25
2018-02-07T03:24:17.233Z,2.28
2018-02-07T03:26:44.112Z,2.21
2018-02-07T03:29:11.573Z,2.37
2018-02-07T03:31:38.870Z,2.52
2018-02-07T03:34:06.282Z,2.51
2018-02-07T03:36:33.360Z,2.57
2018-02-07T03:39:00.743Z,2.57
2018-02-07T03:41:28.450Z,2.60
2018-02-07T03:43:56.773Z,2.60
2018-02-07T03:46:25.100Z,2.68
2018-02-07T03:48:53.255Z,2.62
2018-02-07T03:51:21.222Z,2.69
2018-02-07T03:53:48.846Z,2.65
2018-02-07T03:56:17.458Z,2.59
2018-02-07T03:58:44.863Z,2.59
2018-02-07T04:01:11.982Z,2.58
2018-02-07T04:03:39.294Z,2.69
2018-02-07T04:06:06.531Z,2.58
2018-02-07T04:08:33.931Z,2.53
2018-02-07T04:11:01.038Z,2.40
2018-02-07T04:13:28.289Z,2.46
2018-02-07T04:15:55.938Z,2.46
2018-02-07T04:18:22.849Z,2.47
2018-02-07T04:20:49.797Z,2.53
2018-02-07T04:23:16.879Z,2.51
2018-02-07T04:25:43.649Z,2.63
2018-02-07T04:28:10.638Z,2.63
2018-02-07T04:30:37.899Z,2.62
2018-02-07T04:33:04.875Z,2.66
2018-02-07T04:35:32.319Z,2.58
2018-02-07T04:37:59.547Z,2.54
2018-02-07T04:40:26.810Z,2.55
2018-02-07T04:42:54.419Z,2.60
2018-02-07T04:45:21.601Z,2.79
2018-02-07T04:47:48.656Z,2.44
2018-02-07T04:50:15.675Z,2.93
2018-02-07T04:52:42.554Z,3.38
2018-02-07T04:55:10.026Z,2.68
2018-02-07T04:57:37.138Z,2.42
2018-02-07T05:00:04.361Z,2.59
2018-02-07T05:02:31.807Z,2.29
2018-02-07T05:04:58.734Z,2.01
2018-02-07T05:07:26.179Z,1.94
2018-02-07T05:09:53.382Z,1.81
2018-02-07T05:12:21.505Z,1.75
2018-02-07T05:14:48.597Z,1.93
2018-02-07T05:17:15.906Z,1.86
2018-02-07T05:19:42.913Z,2.18
2018-02-07T05:22:10.510Z,2.26
2018-02-07T05:24:37.701Z,2.04
2018-02-07T05:27:04.781Z,1.97
2018-02-07T05:29:31.765Z,1.99
2018-02-07T05:31:59.394Z,2.07
2018-02-07T05:34:26.906Z,2.43
2018-02-07T05:36:54.051Z,2.35
2018-02-07T05:39:21.429Z,2.42
2018-02-07T05:41:48.915Z,2.52
2018-02-07T05:44:16.137Z,2.45
2018-02-07T05:46:43.482Z,2.50
2018-02-07T05:49:10.582Z,2.45
2018-02-07T05:51:38.168Z,2.41
2018-02-07T05:54:05.831Z,2.20
2018-02-07T05:56:32.719Z,2.70
2018-02-07T05:58:59.998Z,2.26
2018-02-07T06:01:27.334Z,2.11
2018-02-07T06:03:54.516Z,1.98
2018-02-07T06:06:21.734Z,2.33
2018-02-07T06:08:48.698Z,2.50
2018-02-07T06:11:16.188Z,2.26
2018-02-07T06:13:43.363Z,2.61
2018-02-07T06:16:10.581Z,2.77
2018-02-07T06:18:37.833Z,3.25
2018-02-07T06:21:05.253Z,3.42
2018-02-07T06:23:32.456Z,3.82
2018-02-07T06:25:59.622Z,3.74
2018-02-07T06:28:26.985Z,3.93
2018-02-07T06:30:54.314Z,3.67
2018-02-07T06:33:21.509Z,4.01
2018-02-07T06:35:48.509Z,4.10
2018-02-07T06:38:15.521Z,4.10
2018-02-07T06:40:42.894Z,3.72
2018-02-07T06:43:10.007Z,3.91
2018-02-07T06:45:37.222Z,3.61
2018-02-07T06:48:04.230Z,3.91
2018-02-07T06:50:31.459Z,3.94
2018-02-07T06:52:58.682Z,3.91
2018-02-07T06:55:26.056Z,4.20
2018-02-07T06:57:53.098Z,4.63
2018-02-07T07:00:20.484Z,5.19
2018-02-07T07:02:47.493Z,5.49
2018-02-07T07:05:14.833Z,5.75
2018-02-07T07:07:42.244Z,6.03
2018-02-07T07:10:10.003Z,6.28
2018-02-07T07:12:37.075Z,6.03
2018-02-07T07:15:04.173Z,6.69
2018-02-07T07:17:31.317Z,6.71
2018-02-07T07:19:58.528Z,7.10
2018-02-07T07:22:25.938Z,7.32
2018-02-07T07:24:52.817Z,6.97
2018-02-07T07:27:20.274Z,6.41
2018-02-07T07:29:47.239Z,6.81
2018-02-07T07:32:14.346Z,7.28
2018-02-07T07:34:41.497Z,7.29
2018-02-07T07:37:08.757Z,7.26
2018-02-07T07:39:35.766Z,7.22
2018-02-07T07:42:03.078Z,6.97
2018-02-07T07:44:30.449Z,6.76
2018-02-07T07:46:57.382Z,6.72
2018-02-07T07:49:24.406Z,6.89
2018-02-07T07:51:51.659Z,5.94
2018-02-07T07:54:18.825Z,5.78
2018-02-07T07:56:46.102Z,5.71
2018-02-07T07:59:13.286Z,5.61
2018-02-07T08:01:40.562Z,5.50
2018-02-07T08:04:07.851Z,5.53
2018-02-07T08:06:34.921Z,5.66
2018-02-07T08:09:01.965Z,5.71
2018-02-07T08:11:28.944Z,5.87
2018-02-07T08:13:56.358Z,5.34
2018-02-07T08:16:23.526Z,5.06
2018-02-07T08:18:50.647Z,4.87
2018-02-07T08:21:17.914Z,4.95
2018-02-07T08:23:45.014Z,5.19
2018-02-07T08:26:12.486Z,5.00
2018-02-07T08:28:39.525Z,5.01
2018-02-07T08:31:06.941Z,4.93
2018-02-07T08:33:34.370Z,5.07
2018-02-07T08:36:01.710Z,5.17
2018-02-07T08:38:28.957Z,5.13
2018-02-07T08:40:56.038Z,4.96
2018-02-07T08:43:23.694Z,5.08
2018-02-07T08:45:51.040Z,5.05
2018-02-07T08:48:18.433Z,5.12
2018-02-07T08:50:45.485Z,5.07
2018-02-07T08:53:13.216Z,5.04
2018-02-07T08:55:40.413Z,5.19
2018-02-07T08:58:08.006Z,5.38
2018-02-07T09:00:35.054Z,5.40
2018-02-07T09:03:02.218Z,5.42
2018-02-07T09:05:29.671Z,5.85
2018-02-07T09:07:58.010Z,5.92
2018-02-07T09:10:25.345Z,5.79
2018-02-07T09:12:52.560Z,5.74
2018-02-07T09:15:20.065Z,5.70
2018-02-07T09:17:47.588Z,5.88
2018-02-07T09:20:14.614Z,5.71
2018-02-07T09:22:42.031Z,5.78
2018-02-07T09:25:09.214Z,5.77
2018-02-07T09:27:36.758Z,5.50
2018-02-07T09:30:04.365Z,5.48
2018-02-07T09:32:31.578Z,5.66
2018-02-07T09:34:58.959Z,5.73
2018-02-07T09:37:26.417Z,5.91
2018-02-07T09:39:53.883Z,5.91
2018-02-07T09:42:21.223Z,6.01
2018-02-07T09:44:48.900Z,6.47
2018-02-07T09:47:16.274Z,6.71
2018-02-07T09:49:44.122Z,6.89
2018-02-07T09:52:11.290Z,7.77
2018-02-07T09:54:38.824Z,8.36
2018-02-07T09:57:05.753Z,7.98
2018-02-07T09:59:32.850Z,8.37
2018-02-07T10:02:00.371Z,8.74
2018-02-07T10:04:28.249Z,8.81
2018-02-07T10:06:55.718Z,8.97
2018-02-07T10:09:23.130Z,9.22
2018-02-07T10:11:50.547Z,9.12
2018-02-07T10:14:18.055Z,9.13
2018-02-07T10:16:45.186Z,8.94
2018-02-07T10:19:12.252Z,8.61
2018-02-07T10:21:39.433Z,9.37
2018-02-07T10:24:06.563Z,9.21
2018-02-07T10:26:33.790Z,9.97
2018-02-07T10:29:01.047Z,9.46
2018-02-07T10:31:28.474Z,9.79
2018-02-07T10:33:55.858Z,9.52
2018-02-07T10:36:23.311Z,9.87
2018-02-07T10:38:50.987Z,10.11
2018-02-07T10:41:18.206Z,10.35
2018-02-07T10:43:45.594Z,10.26
2018-02-07T10:46:12.994Z,9.96
2018-02-07T10:48:40.668Z,9.58
2018-02-07T10:51:07.677Z,10.99
2018-02-07T10:53:34.810Z,10.58
2018-02-07T10:56:01.946Z,9.77
2018-02-07T10:58:29.211Z,10.72
2018-02-07T11:00:56.385Z,10.47
2018-02-07T11:03:23.443Z,10.67
2018-02-07T11:05:50.597Z,10.37
2018-02-07T11:08:17.736Z,10.64
2018-02-07T11:10:45.186Z,10.33
2018-02-07T11:13:12.474Z,9.72
2018-02-07T11:15:39.518Z,9.37
2018-02-07T11:18:06.597Z,9.70
2018-02-07T11:20:33.736Z,9.07
2018-02-07T11:23:00.670Z,9.64
2018-02-07T11:25:28.033Z,9.41
2018-02-07T11:27:55.536Z,8.91
2018-02-07T11:30:23.014Z,8.85
2018-02-07T11:32:50.330Z,8.79
2018-02-07T11:35:17.198Z,9.08
2018-02-07T11:37:44.414Z,9.30
2018-02-07T11:40:11.505Z,9.34
2018-02-07T11:42:38.520Z,9.28
2018-02-07T11:45:05.545Z,9.47
2018-02-07T11:47:32.718Z,10.12
2018-02-07T11:50:00.460Z,9.99
2018-02-07T11:52:27.935Z,9.90
2018-02-07T11:54:55.345Z,9.31
2018-02-07T11:57:22.936Z,9.56
2018-02-07T11:59:50.170Z,9.49
2018-02-07T12:02:17.470Z,9.56
2018-02-07T12:04:44.773Z,9.67
2018-02-07T12:07:12.858Z,9.38
2018-02-07T12:09:40.149Z,9.74
2018-02-07T12:12:07.872Z,9.65
2018-02-07T12:14:35.521Z,9.76
2018-02-07T12:17:03.708Z,9.41
2018-02-07T12:19:31.142Z,9.23
2018-02-07T12:21:58.744Z,9.35
2018-02-07T12:24:25.971Z,9.46
2018-02-07T12:26:53.172Z,9.56
2018-02-07T12:29:20.553Z,9.62
2018-02-07T12:31:47.859Z,9.68
2018-02-07T12:34:15.330Z,9.83
2018-02-07T12:36:42.489Z,9.90
2018-02-07T12:39:09.694Z,9.97
2018-02-07T12:41:36.798Z,9.79
2018-02-07T12:44:05.028Z,9.62
2018-02-07T12:46:32.596Z,9.66
2018-02-07T12:49:00.154Z,9.56
2018-02-07T12:51:27.733Z,9.65
2018-02-07T12:53:55.031Z,9.67
2018-02-07T12:56:22.935Z,9.62
2018-02-07T12:58:50.263Z,10.07
2018-02-07T13:01:17.533Z,10.30
2018-02-07T13:03:44.725Z,10.43
2018-02-07T13:06:12.353Z,10.29
2018-02-07T13:08:39.654Z,10.23
2018-02-07T13:11:07.289Z,10.37
2018-02-07T13:13:34.963Z,9.99
2018-02-07T13:16:02.390Z,9.79
2018-02-07T13:18:29.531Z,10.29
2018-02-07T13:20:56.821Z,10.49
2018-02-07T13:23:23.949Z,10.87
2018-02-07T13:25:51.129Z,11.05
2018-02-07T13:28:18.294Z,9.90
2018-02-07T13:30:45.658Z,10.91
2018-02-07T13:33:13.234Z,9.84
2018-02-07T13:35:40.512Z,9.54
2018-02-07T13:38:07.650Z,9.87
2018-02-07T13:40:34.649Z,9.98
2018-02-07T13:43:02.014Z,9.81
2018-02-07T13:45:32.738Z,9.68
2018-02-07T13:48:00.233Z,10.01
2018-02-07T13:50:27.522Z,9.85
2018-02-07T13:52:54.991Z,9.94
2018-02-07T13:55:22.041Z,9.83
2018-02-07T13:57:49.582Z,9.86
2018-02-07T14:00:16.822Z,9.65
2018-02-07T14:02:44.095Z,9.18
2018-02-07T14:05:11.138Z,9.77
2018-02-07T14:07:38.190Z,10.13
2018-02-07T14:10:06.447Z,9.83
2018-02-07T14:12:33.936Z,10.18
2018-02-07T14:15:01.465Z,10.56
2018-02-07T14:17:28.718Z,10.39
2018-02-07T14:19:55.966Z,10.68
2018-02-07T14:22:22.991Z,10.70
2018-02-07T14:24:50.180Z,9.87
2018-02-07T14:27:17.222Z,10.24
2018-02-07T14:29:44.586Z,10.21
2018-02-07T14:32:11.814Z,9.39
2018-02-07T14:34:38.873Z,9.22
2018-02-07T14:37:06.182Z,9.34
2018-02-07T14:39:34.197Z,9.51
2018-02-07T14:42:01.593Z,9.81
2018-02-07T14:44:28.875Z,9.46
2018-02-07T14:46:56.293Z,9.50
2018-02-07T14:49:23.554Z,8.94
2018-02-07T14:51:50.951Z,8.89
2018-02-07T14:54:19.147Z,9.16
2018-02-07T14:56:46.314Z,9.19
2018-02-07T14:59:13.870Z,8.86
2018-02-07T15:01:41.319Z,8.83
2018-02-07T15:04:09.353Z,8.90
2018-02-07T15:06:37.156Z,9.24
2018-02-07T15:09:04.826Z,9.21
2018-02-07T15:11:31.974Z,9.28
2018-02-07T15:13:59.302Z,8.89
2018-02-07T15:16:26.254Z,8.87
2018-02-07T15:18:53.947Z,8.65
2018-02-07T15:21:21.294Z,8.59
2018-02-07T15:23:48.419Z,8.40
2018-02-07T15:26:15.904Z,8.69
2018-02-07T15:28:43.352Z,8.45
2018-02-07T15:31:10.803Z,8.65
2018-02-07T15:33:38.014Z,8.48
2018-02-07T15:36:05.081Z,8.61
2018-02-07T15:38:32.346Z,8.73
2018-02-07T15:40:59.510Z,8.33
2018-02-07T15:43:26.811Z,8.50
2018-02-07T15:45:54.226Z,8.25
2018-02-07T15:48:21.372Z,8.19
2018-02-07T15:50:48.546Z,8.33
2018-02-07T15:53:15.393Z,8.54
2018-02-07T15:55:42.908Z,8.26
2018-02-07T15:58:10.374Z,8.29
2018-02-07T16:00:37.428Z,8.18
2018-02-07T16:03:04.539Z,8.30
2018-02-07T16:05:31.634Z,8.33
2018-02-07T16:07:58.950Z,8.22
2018-02-07T16:10:25.878Z,8.37
2018-02-07T16:12:53.310Z,8.31
2018-02-07T16:15:20.652Z,8.36
2018-02-07T16:17:48.107Z,8.52
2018-02-07T16:20:15.341Z,8.38
2018-02-07T16:22:42.786Z,8.59
2018-02-07T16:25:10.098Z,8.48
2018-02-07T16:27:37.202Z,8.07
2018-02-07T16:30:04.321Z,8.21
2018-02-07T16:32:31.446Z,8.37
2018-02-07T16:34:58.862Z,8.69
2018-02-07T16:37:26.154Z,8.55
2018-02-07T16:39:53.885Z,8.60
2018-02-07T16:42:21.189Z,8.44
2018-02-07T16:44:48.202Z,8.44
2018-02-07T16:47:15.341Z,8.30
2018-02-07T16:49:42.774Z,8.36
2018-02-07T16:52:10.352Z,8.26
2018-02-07T16:54:37.565Z,8.31
2018-02-07T16:57:04.855Z,8.43
2018-02-07T16:59:32.086Z,8.16
2018-02-07T17:01:59.303Z,8.21
2018-02-07T17:04:26.642Z,8.31
2018-02-07T17:06:54.158Z,8.25
2018-02-07T17:09:21.732Z,8.53
2018-02-07T17:11:49.242Z,8.18
2018-02-07T17:14:16.719Z,8.78
2018-02-07T17:16:44.467Z,8.75
2018-02-07T17:19:11.665Z,8.49
2018-02-07T17:21:38.965Z,8.66
2018-02-07T17:24:06.464Z,8.33
2018-02-07T17:26:33.779Z,8.67
2018-02-07T17:29:01.346Z,8.32
2018-02-07T17:31:28.751Z,8.26
2018-02-07T17:33:56.029Z,8.32
2018-02-07T17:36:23.685Z,8.52
2018-02-07T17:38:51.099Z,8.30
2018-02-07T17:41:18.202Z,8.44
2018-02-07T17:43:45.706Z,8.40
2018-02-07T17:46:13.011Z,8.26
2018-02-07T17:48:40.382Z,8.19
2018-02-07T17:51:07.341Z,8.25
2018-02-07T17:53:34.599Z,8.38
2018-02-07T17:56:01.650Z,8.82
2018-02-07T17:58:28.731Z,8.62
2018-02-07T18:00:55.735Z,8.75
2018-02-07T18:03:23.782Z,8.51
2018-02-07T18:05:51.414Z,8.57
2018-02-07T18:08:18.868Z,8.32
2018-02-07T18:10:46.135Z,8.35
2018-02-07T18:13:13.402Z,8.26
2018-02-07T18:15:40.724Z,8.33
2018-02-07T18:18:08.094Z,8.55
2018-02-07T18:20:35.200Z,8.45
2018-02-07T18:23:02.734Z,8.12
2018-02-07T18:25:30.093Z,8.16
2018-02-07T18:27:57.398Z,8.37
2018-02-07T18:30:25.286Z,8.38
2018-02-07T18:32:52.819Z,8.40
2018-02-07T18:35:19.776Z,8.33
2018-02-07T18:37:47.022Z,8.14
2018-02-07T18:40:14.290Z,8.15
2018-02-07T18:42:41.533Z,8.17
2018-02-07T18:45:08.825Z,8.21
2018-02-07T18:47:36.174Z,8.28
2018-02-07T18:50:03.475Z,8.18
2018-02-07T18:52:30.597Z,8.20
2018-02-07T18:54:57.708Z,8.07
2018-02-07T18:57:25.314Z,8.02
2018-02-07T18:59:52.424Z,7.99
2018-02-07T19:02:19.999Z,8.00
2018-02-07T19:04:47.218Z,8.55
2018-02-07T19:07:14.666Z,8.56
2018-02-07T19:09:41.866Z,8.13
2018-02-07T19:12:08.825Z,8.31
2018-02-07T19:14:35.806Z,8.07
2018-02-07T19:17:03.091Z,8.01
2018-02-07T19:19:30.011Z,8.24
2018-02-07T19:21:57.283Z,8.26
2018-02-07T19:24:24.537Z,8.54
2018-02-07T19:26:51.856Z,8.18
2018-02-07T19:29:19.097Z,8.09
2018-02-07T19:31:46.330Z,8.10
2018-02-07T19:34:13.845Z,8.05
2018-02-07T19:36:41.369Z,8.26
2018-02-07T19:39:08.562Z,8.59
2018-02-07T19:41:35.989Z,8.45
2018-02-07T19:44:03.893Z,8.78
2018-02-07T19:46:31.135Z,8.88
2018-02-07T19:48:58.225Z,8.58
2018-02-07T19:51:25.749Z,8.53
2018-02-07T19:53:53.198Z,8.54
2018-02-07T19:56:20.685Z,8.71
2018-02-07T19:58:48.378Z,8.32
2018-02-07T20:01:15.782Z,8.33
2018-02-07T20:03:43.247Z,8.34
2018-02-07T20:06:10.626Z,8.16
2018-02-07T20:08:38.106Z,8.17
2018-02-07T20:11:05.137Z,8.11
2018-02-07T20:13:32.396Z,8.12
2018-02-07T20:15:59.760Z,8.14
2018-02-07T20:18:26.983Z,8.13
2018-02-07T20:20:54.735Z,8.82
2018-02-07T20:23:21.938Z,8.55
2018-02-07T20:25:49.310Z,8.26
2018-02-07T20:28:16.953Z,8.29
2018-02-07T20:30:44.325Z,8.07
2018-02-07T20:33:11.558Z,8.15
2018-02-07T20:35:38.834Z,8.55
2018-02-07T20:38:05.959Z,8.42
2018-02-07T20:40:33.598Z,8.14
2018-02-07T20:43:00.900Z,8.05
2018-02-07T20:45:28.507Z,8.05
2018-02-07T20:47:55.678Z,8.41
2018-02-07T20:50:23.270Z,8.73
2018-02-07T20:52:50.750Z,8.35
2018-02-07T20:55:17.730Z,8.17
2018-02-07T20:57:45.354Z,8.32
2018-02-07T21:00:12.591Z,8.40
2018-02-07T21:02:40.845Z,8.50
2018-02-07T21:05:08.279Z,8.44
2018-02-07T21:07:35.817Z,8.83
2018-02-07T21:10:03.381Z,8.70
2018-02-07T21:12:30.425Z,8.27
2018-02-07T21:14:57.765Z,8.33
2018-02-07T21:17:32.402Z,8.39
2018-02-07T21:20:00.109Z,8.80
2018-02-07T21:22:27.277Z,8.76
2018-02-07T21:24:54.250Z,8.91
2018-02-07T21:27:22.222Z,8.82
2018-02-07T21:29:49.526Z,8.68
2018-02-07T21:32:17.794Z,8.72
2018-02-07T21:34:45.081Z,8.43
2018-02-07T21:34:49.761Z,21.52
2018-02-07T21:37:12.594Z,8.79
2018-02-07T21:37:16.779Z,21.51
2018-02-07T21:39:40.152Z,9.00
2018-02-07T21:42:07.624Z,8.64
2018-02-07T21:44:35.326Z,8.42
2018-02-07T21:47:02.820Z,8.34
2018-02-07T21:49:30.120Z,8.13
2018-02-07T21:51:57.579Z,8.04
2018-02-07T21:54:24.992Z,7.99
2018-02-07T21:56:52.849Z,8.22
2018-02-07T21:59:20.095Z,8.37
2018-02-07T22:01:47.405Z,8.28
2018-02-07T22:04:14.739Z,8.32
2018-02-07T22:06:42.090Z,8.24
2018-02-07T22:09:09.398Z,8.20
2018-02-07T22:11:37.077Z,8.22
2018-02-07T22:14:04.376Z,8.36
2018-02-07T22:16:31.562Z,8.34
2018-02-07T22:18:58.870Z,8.30
2018-02-07T22:21:26.271Z,8.37
2018-02-07T22:23:53.886Z,8.31
2018-02-07T22:26:21.269Z,8.28
2018-02-07T22:28:48.498Z,8.24
2018-02-07T22:31:15.930Z,8.41
2018-02-07T22:33:43.498Z,8.53
2018-02-07T22:36:10.503Z,8.41
2018-02-07T22:38:37.669Z,8.42
2018-02-07T22:41:05.334Z,8.27
2018-02-07T22:43:32.821Z,8.22
2018-02-07T22:46:00.628Z,8.30
2018-02-07T22:48:28.006Z,8.45
2018-02-07T22:50:55.675Z,8.39
2018-02-07T22:53:23.613Z,8.01
2018-02-07T22:55:50.966Z,7.92
2018-02-07T22:58:18.264Z,8.05
2018-02-07T23:00:45.386Z,8.57
2018-02-07T23:03:12.741Z,8.38
2018-02-07T23:05:40.245Z,8.65
2018-02-07T23:08:07.425Z,8.20
2018-02-07T23:10:34.856Z,8.35
2018-02-07T23:13:02.048Z,8.60
2018-02-07T23:15:29.235Z,8.75
2018-02-07T23:17:56.791Z,8.50
2018-02-07T23:20:23.900Z,8.36
2018-02-07T23:22:51.162Z,8.30
2018-02-07T23:25:18.473Z,8.63
2018-02-07T23:27:46.114Z,8.70
2018-02-07T23:30:13.747Z,8.87
2018-02-07T23:32:41.114Z,8.93
2018-02-07T23:35:08.210Z,8.86
2018-02-07T23:37:35.892Z,8.47
2018-02-07T23:40:03.298Z,8.48
2018-02-07T23:42:30.697Z,8.13
2018-02-07T23:44:58.301Z,8.18
2018-02-07T23:47:25.498Z,8.15
2018-02-07T23:49:52.845Z,7.97
2018-02-07T23:52:20.196Z,8.09
2018-02-07T23:54:47.686Z,8.36
2018-02-07T23:57:14.986Z,7.96
2018-02-07T23:59:42.131Z,7.87
